Terminal Aerodrome Forecast
Issued by NWS

Home | Current Version | Previous Version | Text Only | Print | Product List | Glossary On
Versions: 1 2 3 4 5 6 7 8 9 10 11 12 13 14 15
000
FTPA31 PHFO 251739
TAFHKO
TAF
PHKO 251739Z 2518/2618 35006KT P6SM FEW020 BKN060
     FM252000 28010KT P6SM VCSH SCT030 BKN060
     FM260200 20008KT P6SM VCSH SCT020 BKN050
      TEMPO 2602/2605 4SM SHRA BR BKN020
     FM261000 12007KT P6SM SCT020 SCT040=

USA.gov is the U.S. government's official web portal to all federal, state and local government web resources and services.